Time;durP1;ratioP1;P1;durP2;ratioP2;P2;SDS_P1;SDS_P2;PMS_P1;PMS_P2;Temp;Humidity;BMP_temperature;BMP_pressure;BME280_temperature;BME280_humidity;BME280_pressure;Samples;Min_cycle;Max_cycle;Signal;HPM_P1;HPM_P2
2023/03/03 00:04:30;;;;;;;18.20;13.22;;;;;;;0.89;69.10;100007.16;1752427;82;21837;-57
2023/03/03 00:11:03;;;;;;;14.40;12.10;;;;;;;0.94;69.08;99997.72;1752717;82;21445;-57
2023/03/03 00:17:39;;;;;;;11.53;10.10;;;;;;;1.00;69.17;99977.12;1752398;82;21469;-57
2023/03/03 00:27:37;;;;;;;9.38;8.38;;;;;;;0.88;69.33;99951.47;1759617;81;21020;-57
2023/03/03 00:34:29;;;;;;;8.63;7.72;;;;;;;0.86;69.64;99947.61;1759671;81;21077;-57
2023/03/03 00:41:00;;;;;;;10.30;7.28;;;;;;;0.86;69.50;99946.76;1759574;81;21631;-57
2023/03/03 00:47:41;;;;;;;8.10;7.12;;;;;;;0.86;69.66;99942.91;1759596;81;21278;-57
2023/03/03 00:50:33;;;;;;;8.78;7.72;;;;;;;0.82;69.70;99956.64;1728393;81;21061;-57
2023/03/03 00:53:11;;;;;;;8.78;7.00;;;;;;;0.84;69.76;99949.76;1760006;81;20965;-57
2023/03/03 00:55:44;;;;;;;8.88;7.35;;;;;;;0.84;69.76;99947.19;1759977;81;20953;-57
2023/03/03 01:02:12;;;;;;;10.28;8.00;;;;;;;0.83;69.83;99928.78;1759558;81;21014;-57
2023/03/03 01:08:43;;;;;;;12.50;8.15;;;;;;;0.83;70.04;99930.06;1759560;81;21073;-57
2023/03/03 01:15:15;;;;;;;14.23;9.50;;;;;;;0.78;70.01;99940.80;1759581;81;21020;-57
2023/03/03 01:21:45;;;;;;;11.88;10.18;;;;;;;0.74;70.09;99932.69;1759567;81;21036;-57
2023/03/03 01:27:39;;;;;;;12.33;10.05;;;;;;;0.72;70.25;99928.82;1752590;82;20973;-58
2023/03/03 01:34:10;;;;;;;14.18;10.88;;;;;;;0.72;70.40;99908.70;1752610;82;20957;-57
2023/03/03 01:40:40;;;;;;;12.80;10.32;;;;;;;0.68;70.52;99922.44;1752346;82;21264;-57
2023/03/03 01:47:21;;;;;;;16.77;12.75;;;;;;;0.75;70.83;99931.81;1752262;82;21056;-57
2023/03/03 01:53:55;;;;;;;13.00;10.65;;;;;;;0.78;70.92;99924.09;1752234;82;21044;-57
2023/03/03 01:59:58;;;;;;;11.97;10.20;;;;;;;0.83;71.10;99915.93;1742248;77;21235;-68
2023/03/03 02:02:27;;;;;;;13.25;10.25;;;;;;;0.81;71.17;99906.08;1732805;81;21066;-65
2023/03/03 02:04:56;;;;;;;15.75;10.98;;;;;;;0.83;71.24;99908.22;1724483;81;21107;-62
2023/03/03 02:07:25;;;;;;;13.32;10.05;;;;;;;0.88;71.32;99906.48;1712402;82;21162;-65
2023/03/03 02:10:06;;;;;;;13.10;10.18;;;;;;;0.90;71.30;99895.77;1700076;83;21121;-65
2023/03/03 02:12:52;;;;;;;12.10;10.85;;;;;;;0.92;71.37;99901.73;1715540;81;21489;-66
2023/03/03 02:15:37;;;;;;;11.93;10.08;;;;;;;0.97;71.51;99894.86;1715667;82;20983;-61
2023/03/03 02:18:10;;;;;;;18.17;9.80;;;;;;;1.00;71.49;99896.13;1711189;81;21054;-69
2023/03/03 02:20:46;;;;;;;25.43;9.98;;;;;;;1.01;71.47;99890.14;1702477;82;21061;-69
2023/03/03 02:23:39;;;;;;;14.10;9.20;;;;;;;1.01;71.63;99891.42;1719250;82;21507;-66
2023/03/03 02:26:12;;;;;;;27.93;9.35;;;;;;;1.04;71.65;99886.27;1715715;82;20979;-59
2023/03/03 02:28:40;;;;;;;13.68;9.33;;;;;;;1.11;71.78;99882.77;1707697;82;21039;-59
2023/03/03 02:31:17;;;;;;;15.20;8.58;;;;;;;1.15;71.90;99877.20;1710150;82;21090;-63
2023/03/03 02:33:47;;;;;;;24.82;9.35;;;;;;;1.18;71.96;99873.75;1710250;82;21640;-63
2023/03/03 02:36:18;;;;;;;23.77;9.88;;;;;;;1.20;71.86;99886.15;1713943;82;21062;-60
2023/03/03 02:38:52;;;;;;;14.03;9.83;;;;;;;1.22;71.86;99889.58;1710776;82;21011;-64
2023/03/03 02:41:42;;;;;;;13.32;9.60;;;;;;;1.22;72.11;99890.86;1714564;82;21017;-66
2023/03/03 02:44:16;;;;;;;14.43;9.23;;;;;;;1.25;72.30;99885.69;1711537;82;21620;-59
2023/03/03 02:46:46;;;;;;;13.30;9.03;;;;;;;1.26;72.23;99888.67;1712549;81;21009;-67
2023/03/03 02:49:17;;;;;;;22.00;9.45;;;;;;;1.31;72.36;99889.50;1708575;81;21011;-58
2023/03/03 02:51:44;;;;;;;28.42;9.18;;;;;;;1.34;72.29;99880.47;1709951;82;21522;-58
2023/03/03 02:54:13;;;;;;;18.07;9.80;;;;;;;1.31;72.09;99877.92;1729687;81;21024;-68
2023/03/03 02:56:40;;;;;;;43.73;10.55;;;;;;;1.30;72.28;99883.95;1733642;81;21051;-66
2023/03/03 02:59:07;;;;;;;21.25;9.45;;;;;;;1.29;72.35;99883.54;1731759;81;21020;-63
2023/03/03 03:01:37;;;;;;;12.75;9.83;;;;;;;1.30;72.58;99886.52;1715193;81;21053;-70
2023/03/03 03:04:09;;;;;;;42.10;10.08;;;;;;;1.37;72.62;99876.59;1708767;82;21232;-67
2023/03/03 03:06:36;;;;;;;12.85;8.85;;;;;;;1.39;72.72;99871.01;1703497;82;21504;-68
2023/03/03 03:09:05;;;;;;;27.82;10.93;;;;;;;1.43;72.83;99881.72;1707223;82;21066;-70
2023/03/03 03:11:34;;;;;;;22.35;10.32;;;;;;;1.47;72.67;99879.52;1711726;82;20998;-65
2023/03/03 03:14:02;;;;;;;22.77;10.53;;;;;;;1.47;72.80;99874.81;1705926;82;21018;-59
2023/03/03 03:16:30;;;;;;;13.15;9.38;;;;;;;1.49;72.62;99865.38;1691757;83;21567;-61
2023/03/03 03:18:59;;;;;;;23.40;9.98;;;;;;;1.50;72.91;99861.48;1748045;79;21085;-67
2023/03/03 03:21:28;;;;;;;12.98;10.55;;;;;;;1.53;72.95;99860.17;1678306;82;21096;-59
2023/03/03 03:23:54;;;;;;;31.50;10.05;;;;;;;1.54;73.03;99859.32;1751593;80;21002;-57
2023/03/03 03:26:21;;;;;;;17.73;9.95;;;;;;;1.56;72.96;99862.71;1708232;82;20954;-63
2023/03/03 03:28:49;;;;;;;15.25;10.05;;;;;;;1.55;73.09;99858.45;1708310;82;21020;-64
2023/03/03 03:31:18;;;;;;;26.07;11.12;;;;;;;1.60;73.18;99848.13;1758014;80;20997;-60
2023/03/03 03:33:47;;;;;;;28.25;11.55;;;;;;;1.61;73.22;99840.81;1757077;80;21074;-63
2023/03/03 03:36:13;;;;;;;14.98;11.22;;;;;;;1.66;73.33;99848.50;1710057;82;20993;-57
2023/03/03 03:38:40;;;;;;;11.65;10.38;;;;;;;1.67;73.30;99846.34;1705302;82;20961;-58
2023/03/03 03:41:10;;;;;;;26.62;10.70;;;;;;;1.68;73.33;99850.61;1684861;82;21019;-58
2023/03/03 03:43:37;;;;;;;16.70;11.35;;;;;;;1.69;73.30;99847.19;1750672;80;20888;-58
2023/03/03 03:46:04;;;;;;;14.55;11.65;;;;;;;1.70;73.36;99848.44;1742028;80;21029;-59
2023/03/03 03:48:31;;;;;;;14.83;11.15;;;;;;;1.71;73.55;99845.42;1711730;82;21071;-56
2023/03/03 03:50:58;;;;;;;16.93;11.95;;;;;;;1.74;73.59;99848.00;1740095;80;21123;-60
2023/03/03 03:53:24;;;;;;;14.65;11.68;;;;;;;1.74;73.49;99853.15;1740251;79;21037;-62
2023/03/03 03:55:51;;;;;;;18.77;12.33;;;;;;;1.78;73.76;99847.09;1749107;80;21500;-60
2023/03/03 03:58:18;;;;;;;15.58;11.43;;;;;;;1.79;73.57;99851.36;1748441;80;21066;-58
2023/03/03 04:00:47;;;;;;;14.13;11.70;;;;;;;1.81;73.73;99846.20;1709731;81;21484;-61
2023/03/03 04:03:14;;;;;;;14.73;12.93;;;;;;;1.83;73.78;99844.05;1716435;82;20965;-66
2023/03/03 04:05:43;;;;;;;;;;;;;;;1.86;73.79;99850.45;1718630;82;21015;-57
2023/03/03 04:08:12;;;;;;;16.23;12.63;;;;;;;1.86;74.00;99842.72;1765979;79;20203;-58
2023/03/03 04:10:39;;;;;;;19.27;13.53;;;;;;;1.86;73.93;99842.72;1762061;79;21013;-57
2023/03/03 04:13:05;;;;;;;17.92;13.03;;;;;;;1.89;74.06;99840.11;1763465;79;21064;-56
2023/03/03 04:15:32;;;;;;;17.83;13.60;;;;;;;1.92;74.08;99840.08;1784608;78;21104;-62
2023/03/03 04:17:58;;;;;;;22.22;13.40;;;;;;;1.94;74.04;99847.80;1782537;78;21085;-56
2023/03/03 04:20:25;;;;;;;16.77;13.43;;;;;;;1.96;74.11;99835.34;1781481;79;21081;-61
2023/03/03 04:22:55;;;;;;;19.05;12.82;;;;;;;1.97;74.03;99842.17;1785379;78;21081;-56
2023/03/03 04:25:22;;;;;;;19.52;13.50;;;;;;;1.99;74.16;99839.16;1781580;79;21058;-56
2023/03/03 04:27:50;;;;;;;15.80;12.88;;;;;;;1.99;74.10;99836.59;1782334;79;21074;-63
2023/03/03 04:30:18;;;;;;;17.50;14.03;;;;;;;2.00;74.12;99820.69;1776092;79;21565;-57
2023/03/03 04:32:45;;;;;;;17.35;14.18;;;;;;;2.03;74.27;99815.95;1780432;79;20961;-70
2023/03/03 04:35:11;;;;;;;19.52;14.30;;;;;;;2.03;74.25;99801.34;1761636;79;21038;-62
2023/03/03 04:37:38;;;;;;;19.48;14.30;;;;;;;2.05;74.33;99796.19;1775635;79;21014;-60
2023/03/03 04:40:07;;;;;;;19.50;14.35;;;;;;;2.04;74.39;99791.44;1758469;79;21041;-60
2023/03/03 04:42:35;;;;;;;18.07;13.62;;;;;;;2.01;74.35;99791.04;1785415;78;20997;-63
2023/03/03 04:45:03;;;;;;;17.32;13.38;;;;;;;2.05;74.30;99802.63;1782946;78;21521;-62
2023/03/03 04:47:31;;;;;;;17.20;13.68;;;;;;;2.07;74.47;99799.13;1777781;78;21044;-58
2023/03/03 04:49:57;;;;;;;17.92;13.53;;;;;;;2.08;74.46;99806.45;1714196;82;21536;-64
2023/03/03 04:52:24;;;;;;;17.27;13.18;;;;;;;2.11;74.55;99793.09;1740653;80;21105;-57
2023/03/03 04:54:51;;;;;;;17.45;14.10;;;;;;;2.14;74.63;99780.61;1744235;79;21068;-60
2023/03/03 04:57:18;;;;;;;17.45;14.07;;;;;;;2.16;74.64;99778.88;1713303;82;21030;-60
2023/03/03 04:59:44;;;;;;;19.90;14.63;;;;;;;2.15;74.55;99777.16;1680911;82;21030;-64
2023/03/03 05:02:12;;;;;;;17.15;13.75;;;;;;;2.17;74.77;99779.29;1700163;81;21557;-64
2023/03/03 05:04:38;;;;;;;17.25;13.48;;;;;;;2.18;74.74;99785.69;1688424;83;20994;-65
2023/03/03 05:07:05;;;;;;;16.40;13.10;;;;;;;2.23;74.86;99794.66;1713733;82;20977;-63
2023/03/03 05:09:32;;;;;;;17.30;14.07;;;;;;;2.24;74.78;99784.77;1755979;79;21061;-61
2023/03/03 05:11:58;;;;;;;19.43;14.40;;;;;;;2.25;74.81;99781.34;1757900;80;20916;-67
2023/03/03 05:14:26;;;;;;;20.82;13.98;;;;;;;2.24;74.84;99793.38;1746763;79;21081;-62
2023/03/03 05:16:54;;;;;;;17.67;14.60;;;;;;;2.26;74.95;99792.05;1753315;80;20954;-59
2023/03/03 05:19:20;;;;;;;18.40;14.10;;;;;;;2.29;74.98;99793.30;1749436;79;21508;-63
2023/03/03 05:21:47;;;;;;;18.37;14.65;;;;;;;2.31;74.99;99787.70;1748432;80;21528;-61
2023/03/03 05:24:15;;;;;;;20.53;14.83;;;;;;;2.34;74.98;99791.52;1746973;80;22226;-65
2023/03/03 05:26:41;;;;;;;;;;;;;;;2.35;74.89;99788.09;1752812;80;21604;-63
2023/03/03 05:29:08;;;;;;;18.80;14.70;;;;;;;2.34;75.08;99800.54;1747186;80;20697;-62
2023/03/03 05:31:36;;;;;;;20.62;13.45;;;;;;;2.36;75.11;99786.36;1748061;80;20950;-63
2023/03/03 05:34:02;;;;;;;17.50;13.93;;;;;;;2.37;75.04;99795.78;1747033;80;21497;-69
2023/03/03 05:36:29;;;;;;;20.08;13.62;;;;;;;2.33;74.98;99788.53;1757638;79;21005;-62
2023/03/03 05:38:56;;;;;;;16.75;13.22;;;;;;;2.35;75.15;99791.95;1749630;80;20935;-65
2023/03/03 05:41:23;;;;;;;20.27;12.98;;;;;;;2.35;75.09;99790.67;1758437;80;21060;-63
2023/03/03 05:43:49;;;;;;;16.50;13.13;;;;;;;2.37;75.14;99781.17;1723707;81;21016;-68
2023/03/03 05:46:16;;;;;;;21.30;14.55;;;;;;;2.43;75.21;99799.12;1688473;83;21085;-64
2023/03/03 05:48:44;;;;;;;18.17;13.70;;;;;;;2.48;75.24;99805.96;1673915;84;21041;-63
2023/03/03 05:51:11;;;;;;;17.40;14.28;;;;;;;2.51;75.29;99816.23;1699666;82;21037;-68
2023/03/03 05:53:38;;;;;;;16.35;12.63;;;;;;;2.52;75.25;99805.03;1713794;82;21041;-62
2023/03/03 05:56:07;;;;;;;15.00;12.73;;;;;;;2.56;75.28;99802.84;1726764;81;20964;-69
2023/03/03 05:58:34;;;;;;;16.90;12.68;;;;;;;2.59;75.37;99804.09;1729818;81;20996;-66
2023/03/03 06:01:02;;;;;;;18.55;12.35;;;;;;;2.64;75.32;99807.47;1730659;81;20963;-65
2023/03/03 06:03:29;;;;;;;15.63;11.35;;;;;;;2.63;75.26;99810.89;1725927;81;21505;-63
2023/03/03 06:05:55;;;;;;;16.77;12.07;;;;;;;2.64;75.30;99806.18;1734243;81;21072;-64
2023/03/03 06:08:22;;;;;;;19.73;12.50;;;;;;;2.67;75.39;99816.00;1700562;82;21073;-65
2023/03/03 06:10:49;;;;;;;18.32;12.73;;;;;;;2.72;75.45;99817.65;1721671;82;21006;-66
2023/03/03 06:13:16;;;;;;;16.77;13.58;;;;;;;2.77;75.50;99816.71;1776516;79;20916;-61
2023/03/03 06:15:43;;;;;;;19.45;14.18;;;;;;;2.79;75.37;99820.13;1782712;79;20949;-59
2023/03/03 06:18:10;;;;;;;16.35;12.95;;;;;;;2.85;75.59;99820.04;1777685;79;21043;-60
2023/03/03 06:20:37;;;;;;;15.05;11.10;;;;;;;2.93;75.63;99823.80;1780521;79;21050;-59
2023/03/03 06:23:04;;;;;;;14.93;11.60;;;;;;;2.95;75.59;99823.35;1741593;80;20986;-58
2023/03/03 06:25:34;;;;;;;20.17;11.78;;;;;;;3.03;75.54;99823.25;1771889;79;20906;-57
2023/03/03 06:27:59;;;;;;;15.05;10.88;;;;;;;3.07;75.49;99822.31;1767793;79;21548;-59
2023/03/03 06:30:27;;;;;;;14.45;11.70;;;;;;;3.12;75.35;99828.27;1771408;79;21518;-63
2023/03/03 06:32:54;;;;;;;13.62;11.08;;;;;;;3.15;75.44;99825.63;1768108;79;21002;-58
2023/03/03 06:35:20;;;;;;;13.32;9.83;;;;;;;3.22;75.62;99822.50;1787034;79;20994;-58
2023/03/03 06:37:49;;;;;;;11.75;10.03;;;;;;;3.26;75.47;99823.73;1776909;79;21489;-59
2023/03/03 06:40:16;;;;;;;13.60;9.20;;;;;;;3.32;75.62;99821.05;1773410;79;21060;-59
2023/03/03 06:42:43;;;;;;;11.10;9.00;;;;;;;3.44;75.71;99820.44;1778798;79;21043;-58
2023/03/03 06:45:11;;;;;;;10.58;8.73;;;;;;;3.57;75.69;99818.07;1771440;79;21105;-59
2023/03/03 06:47:37;;;;;;;13.10;8.50;;;;;;;3.65;75.62;99813.62;1732634;80;21450;-61
2023/03/03 06:50:06;;;;;;;10.48;8.80;;;;;;;3.77;75.61;99818.56;1737389;80;20963;-57
2023/03/03 06:52:32;;;;;;;10.00;8.98;;;;;;;3.85;75.55;99818.43;1778112;79;20974;-58
2023/03/03 06:55:01;;;;;;;10.68;8.20;;;;;;;3.90;75.45;99818.36;1777738;79;21066;-58
2023/03/03 06:57:32;;;;;;;11.20;7.85;;;;;;;4.01;75.56;99824.17;1768968;79;21137;-59
2023/03/03 07:00:16;;;;;;;9.05;7.15;;;;;;;4.12;75.61;99827.41;1778223;79;21034;-61
2023/03/03 07:02:43;;;;;;;9.65;7.60;;;;;;;4.24;75.67;99828.45;1744755;80;21512;-58
2023/03/03 07:05:15;;;;;;;10.08;7.80;;;;;;;4.33;75.66;99825.27;1745098;81;21022;-61
2023/03/03 07:07:43;;;;;;;9.53;7.37;;;;;;;4.43;75.61;99830.23;1743702;80;21544;-56
2023/03/03 07:10:28;;;;;;;8.63;7.60;;;;;;;4.48;75.46;99836.58;1715908;82;21004;-58
2023/03/03 07:13:05;;;;;;;8.95;7.47;;;;;;;4.54;75.62;99837.77;1745345;80;21003;-56
2023/03/03 07:15:35;;;;;;;10.75;7.53;;;;;;;4.63;75.43;99836.73;1693019;82;21673;-57
2023/03/03 07:18:04;;;;;;;10.63;7.92;;;;;;;4.68;75.38;99827.98;1749196;80;21797;-57
2023/03/03 07:20:39;;;;;;;9.25;7.92;;;;;;;4.71;75.39;99827.07;1740968;80;21082;-57
2023/03/03 07:23:30;;;;;;;11.40;7.90;;;;;;;4.75;75.34;99818.79;1705129;82;20946;-62
2023/03/03 07:25:57;;;;;;;8.85;7.30;;;;;;;4.79;75.23;99823.00;1748932;80;20959;-57
2023/03/03 07:28:29;;;;;;;8.53;7.37;;;;;;;4.86;75.36;99825.87;1733253;82;21568;-65
2023/03/03 07:30:57;;;;;;;11.90;7.80;;;;;;;4.93;75.22;99828.75;1725937;82;21002;-64
2023/03/03 07:33:34;;;;;;;9.25;7.50;;;;;;;4.98;75.33;99825.58;1724823;82;21030;-63
2023/03/03 07:36:05;;;;;;;11.10;8.15;;;;;;;5.04;75.28;99830.64;1721247;82;20985;-64
2023/03/03 07:38:41;;;;;;;9.80;7.15;;;;;;;5.13;75.37;99831.72;1743442;80;21089;-62
2023/03/03 07:41:22;;;;;;;9.20;7.17;;;;;;;5.28;75.29;99823.18;1742163;80;21063;-63
2023/03/03 07:44:06;;;;;;;10.13;7.20;;;;;;;5.31;74.85;99826.54;1746652;80;20980;-63
2023/03/03 07:46:52;;;;;;;10.65;6.92;;;;;;;5.30;74.79;99836.95;1745517;81;21321;-62
2023/03/03 07:49:35;;;;;;;8.20;6.22;;;;;;;5.23;74.80;99840.55;1742154;80;20983;-61
2023/03/03 07:52:19;;;;;;;8.65;6.55;;;;;;;5.10;74.50;99834.38;1745770;80;21020;-64
2023/03/03 07:54:46;;;;;;;9.50;6.78;;;;;;;4.98;74.61;99838.52;1746085;80;21022;-63
2023/03/03 07:57:38;;;;;;;10.72;8.25;;;;;;;4.94;74.63;99834.31;1745656;80;21149;-64
2023/03/03 08:00:19;;;;;;;8.35;7.35;;;;;;;4.95;74.76;99830.83;1713882;82;21030;-63
2023/03/03 08:03:07;;;;;;;9.30;6.85;;;;;;;5.06;74.86;99828.85;1714303;82;20981;-63
2023/03/03 08:05:43;;;;;;;10.55;8.03;;;;;;;5.09;74.52;99826.19;1716892;82;21102;-63
2023/03/03 08:08:29;;;;;;;8.70;6.60;;;;;;;5.11;74.60;99832.64;1681035;83;21023;-63
2023/03/03 08:10:59;;;;;;;10.75;7.30;;;;;;;5.14;74.47;99830.82;1718198;81;21387;-64
2023/03/03 08:13:38;;;;;;;11.88;7.95;;;;;;;5.21;74.42;99824.20;1681252;83;21053;-64
2023/03/03 08:16:14;;;;;;;9.55;7.58;;;;;;;5.21;74.29;99816.44;1688148;83;21103;-63
2023/03/03 08:18:47;;;;;;;11.75;7.85;;;;;;;5.22;74.35;99833.23;1724452;82;21125;-65
2023/03/03 08:21:25;;;;;;;11.85;9.28;;;;;;;5.24;74.41;99815.09;1688579;83;21494;-63
2023/03/03 08:23:52;;;;;;;11.90;8.58;;;;;;;5.23;74.30;99818.09;1680509;83;20918;-65
2023/03/03 08:26:21;;;;;;;12.37;8.80;;;;;;;5.26;74.32;99819.77;1718171;82;21098;-63
2023/03/03 08:28:49;;;;;;;11.60;9.08;;;;;;;5.28;74.12;99818.00;1652819;84;21000;-64
2023/03/03 08:31:18;;;;;;;11.00;8.23;;;;;;;5.27;73.96;99821.48;1672869;84;21063;-64
2023/03/03 08:33:46;;;;;;;9.33;7.83;;;;;;;5.31;74.11;99825.69;1658658;85;21062;-64
2023/03/03 08:36:13;;;;;;;11.18;8.13;;;;;;;5.37;74.05;99813.89;1676014;83;21124;-64
2023/03/03 08:38:41;;;;;;;8.75;7.55;;;;;;;5.40;73.86;99815.10;1710685;82;21059;-64
2023/03/03 08:41:12;;;;;;;8.48;7.45;;;;;;;5.34;73.75;99823.03;1714238;82;21027;-64
2023/03/03 08:43:37;;;;;;;10.90;8.08;;;;;;;5.40;73.93;99824.16;1714839;82;21549;-62
2023/03/03 08:46:05;;;;;;;11.43;7.62;;;;;;;5.45;73.96;99821.02;1683265;83;21567;-64
2023/03/03 08:48:33;;;;;;;10.15;9.05;;;;;;;5.45;73.68;99821.02;1715664;82;20983;-65
2023/03/03 08:51:00;;;;;;;12.28;8.65;;;;;;;5.43;73.72;99820.20;1712171;82;21437;-65
2023/03/03 08:53:27;;;;;;;13.30;8.37;;;;;;;5.44;73.78;99824.52;1685499;83;21087;-66
2023/03/03 08:55:54;;;;;;;11.95;7.30;;;;;;;5.44;73.57;99827.10;1719218;82;21130;-65
2023/03/03 08:58:23;;;;;;;8.58;6.60;;;;;;;5.39;73.49;99830.24;1691928;82;20953;-64
2023/03/03 09:00:49;;;;;;;10.98;7.30;;;;;;;5.35;73.46;99826.05;1717289;82;21517;-65
2023/03/03 09:03:16;;;;;;;9.88;6.30;;;;;;;5.41;73.52;99831.52;1758616;78;21144;-70
2023/03/03 09:05:44;;;;;;;7.90;6.37;;;;;;;5.42;73.46;99821.10;1785012;79;21028;-67
2023/03/03 09:08:12;;;;;;;8.03;6.50;;;;;;;5.44;73.30;99824.52;1790890;78;20908;-68
2023/03/03 09:10:40;;;;;;;8.55;6.35;;;;;;;5.55;73.49;99825.09;1785853;79;21014;-67
2023/03/03 09:13:17;;;;;;;9.28;5.75;;;;;;;5.55;73.01;99828.98;1793689;78;21007;-69
2023/03/03 09:15:45;;;;;;;6.80;5.80;;;;;;;5.55;72.97;99832.02;1782201;78;20994;-67
2023/03/03 09:18:31;;;;;;;8.00;6.00;;;;;;;5.44;72.68;99831.44;1785890;79;20907;-67
2023/03/03 09:20:57;;;;;;;7.83;6.33;;;;;;;5.37;72.83;99826.83;1785105;78;20947;-65
2023/03/03 09:23:42;;;;;;;9.90;5.97;;;;;;;5.34;72.90;99823.03;1787098;78;21066;-66
2023/03/03 09:26:32;;;;;;;9.93;7.22;;;;;;;5.33;72.80;99819.59;1784078;78;21060;-67
2023/03/03 09:29:20;;;;;;;7.62;6.10;;;;;;;5.31;72.79;99815.34;1791563;79;21655;-60
2023/03/03 09:31:58;;;;;;;7.78;6.35;;;;;;;5.39;72.85;99812.12;1783187;78;21089;-68
2023/03/03 09:34:45;;;;;;;7.50;5.85;;;;;;;5.61;73.02;99813.73;1781520;78;20959;-67
2023/03/03 09:37:25;;;;;;;8.35;5.15;;;;;;;5.79;73.05;99804.62;1787218;79;21002;-68
2023/03/03 09:39:55;;;;;;;6.42;5.03;;;;;;;6.17;72.85;99799.73;1786360;79;21414;-68
2023/03/03 09:42:41;;;;;;;10.65;5.60;;;;;;;6.57;72.94;99801.63;1703552;82;21637;-63
2023/03/03 09:45:37;;;;;;;6.33;4.85;;;;;;;6.78;72.48;99800.99;1723912;81;21050;-64
2023/03/03 09:48:39;;;;;;;6.50;4.23;;;;;;;6.89;72.36;99801.52;1676206;84;21018;-63
2023/03/03 09:51:35;;;;;;;6.90;4.10;;;;;;;7.28;72.68;99797.68;1624732;86;21129;-63
2023/03/03 09:54:13;;;;;;;6.15;3.98;;;;;;;7.34;71.99;99795.75;1676801;84;20966;-61
2023/03/03 09:56:46;;;;;;;6.87;4.37;;;;;;;7.54;72.41;99792.94;1670020;84;21171;-60
2023/03/03 09:59:33;;;;;;;4.35;3.20;;;;;;;8.22;72.84;99787.06;1673815;84;21538;-61
2023/03/03 10:02:20;;;;;;;5.95;3.85;;;;;;;9.21;72.30;99779.40;1668079;83;21083;-60
2023/03/03 10:05:14;;;;;;;3.85;3.37;;;;;;;9.69;71.71;99780.87;1665622;84;21067;-61
2023/03/03 10:08:35;;;;;;;4.00;3.15;;;;;;;10.77;73.52;99774.34;1671415;82;21171;-62
2023/03/03 10:11:07;;;;;;;5.08;3.22;;;;;;;12.64;71.58;99765.66;1671869;84;20915;-68
2023/03/03 10:14:04;;;;;;;4.65;3.37;;;;;;;13.28;71.87;99764.31;1675215;84;21027;-65
2023/03/03 10:17:09;;;;;;;6.58;3.62;;;;;;;15.53;73.34;99752.04;1672882;84;20998;-65
2023/03/03 10:19:47;;;;;;;6.40;3.67;;;;;;;17.81;72.00;99738.75;1674308;84;20996;-64
2023/03/03 10:22:39;;;;;;;5.45;4.15;;;;;;;20.59;72.57;99737.88;1673264;84;21085;-66
2023/03/03 10:25:41;;;;;;;10.65;6.30;;;;;;;22.29;70.94;99735.96;1797478;78;21631;-62
2023/03/03 10:28:32;;;;;;;7.03;4.85;;;;;;;23.22;69.33;99731.33;1720712;82;20985;-62
2023/03/03 10:31:19;;;;;;;5.87;3.10;;;;;;;22.84;67.23;99731.93;1719722;81;21081;-62
2023/03/03 10:33:59;;;;;;;6.45;3.55;;;;;;;21.64;66.10;99728.73;1676903;83;21032;-63
2023/03/03 10:36:59;;;;;;;7.92;3.60;;;;;;;20.18;66.70;99728.22;1660096;84;21097;-68
2023/03/03 10:39:33;;;;;;;5.30;3.50;;;;;;;19.64;65.75;99734.14;1666052;84;21505;-63
2023/03/03 10:42:38;;;;;;;4.30;3.52;;;;;;;19.29;65.63;99735.27;1602568;87;21025;-63
2023/03/03 10:45:34;;;;;;;4.60;3.70;;;;;;;19.26;64.55;99738.67;1584585;88;21104;-64
2023/03/03 10:48:45;;;;;;;5.37;3.50;;;;;;;18.59;62.85;99743.17;1637511;86;21437;-60
2023/03/03 10:51:50;;;;;;;5.28;3.30;;;;;;;18.00;63.01;99736.38;1638148;86;21089;-68
2023/03/03 10:54:58;;;;;;;4.72;3.30;;;;;;;17.41;61.20;99735.17;1650134;85;21496;-68
2023/03/03 10:58:05;;;;;;;5.60;3.00;;;;;;;17.06;61.81;99734.70;1657933;84;21041;-60
2023/03/03 11:01:11;;;;;;;4.17;3.37;;;;;;;16.87;60.87;99730.41;1635768;86;21176;-68
2023/03/03 11:04:01;;;;;;;4.78;3.33;;;;;;;18.84;61.46;99723.55;1625709;84;21091;-69
2023/03/03 11:06:48;;;;;;;4.58;2.95;;;;;;;21.76;60.53;99721.92;1674469;83;21628;-68
2023/03/03 11:09:40;;;;;;;4.70;2.40;;;;;;;23.45;58.60;99712.52;1693930;82;21642;-64
2023/03/03 11:12:17;;;;;;;3.77;2.87;;;;;;;22.43;57.38;99715.52;1698076;83;21086;-66
2023/03/03 11:15:22;;;;;;;6.90;2.75;;;;;;;21.05;57.15;99710.34;1702101;83;21366;-67
2023/03/03 11:18:09;;;;;;;3.47;2.50;;;;;;;19.47;56.36;99712.22;1682355;83;21076;-68
2023/03/03 11:20:44;;;;;;;7.55;2.50;;;;;;;20.13;57.58;99707.41;1730580;81;20997;-65
2023/03/03 11:23:59;;;;;;;5.58;2.33;;;;;;;22.41;55.94;99700.71;1721431;82;21566;-68
2023/03/03 11:26:46;;;;;;;3.62;1.90;;;;;;;23.84;56.22;99692.64;1693870;82;21024;-69
2023/03/03 11:29:45;;;;;;;12.05;2.15;;;;;;;26.76;55.73;99677.66;1694632;83;21494;-73
2023/03/03 11:32:27;;;;;;;2.72;1.57;;;;;;;29.70;55.37;99672.28;1691290;83;21629;-72
2023/03/03 11:35:29;;;;;;;6.00;1.55;;;;;;;31.97;53.91;99667.59;1693046;83;21044;-71
2023/03/03 11:38:18;;;;;;;2.72;1.37;;;;;;;34.67;51.17;99657.02;1682131;84;20950;-72
2023/03/03 11:40:57;;;;;;;9.25;1.40;;;;;;;34.67;51.17;99657.02;1650868;85;21544;-70
2023/03/03 11:43:41;;;;;;;2.52;1.27;;;;;;;35.85;50.09;99656.05;1638250;85;21013;-67
2023/03/03 11:46:27;;;;;;;1.07;0.83;;;;;;;34.49;46.99;99657.88;1646814;84;21616;-72
2023/03/03 11:49:08;;;;;;;6.12;1.30;;;;;;;32.44;46.84;99660.12;1642920;85;21053;-65
2023/03/03 11:51:58;;;;;;;4.17;1.37;;;;;;;30.83;44.21;99665.48;1600778;88;21074;-71
2023/03/03 11:54:56;;;;;;;2.45;0.95;;;;;;;28.18;42.51;99649.13;1643543;85;21193;-69
2023/03/03 11:57:52;;;;;;;2.98;1.05;;;;;;;25.98;41.54;99651.79;1577670;88;21175;-68
2023/03/03 12:00:43;;;;;;;3.47;1.12;;;;;;;25.81;40.93;99652.33;1573022;89;21068;-70
2023/03/03 12:03:15;;;;;;;2.87;1.25;;;;;;;24.43;39.54;99647.35;1576803;89;21104;-69
2023/03/03 12:06:07;;;;;;;2.27;1.07;;;;;;;22.80;39.22;99656.05;1545149;88;21059;-73
2023/03/03 12:08:42;;;;;;;3.75;1.30;;;;;;;22.10;38.67;99648.63;1598542;87;21023;-67
2023/03/03 12:11:29;;;;;;;3.75;1.22;;;;;;;23.48;38.14;99643.93;1567331;88;21101;-67
2023/03/03 12:14:19;;;;;;;2.90;1.35;;;;;;;24.11;37.89;99640.91;1585420;87;21040;-66
2023/03/03 12:17:05;;;;;;;1.50;1.25;;;;;;;26.27;38.18;99637.75;1628636;86;21061;-71
2023/03/03 12:19:58;;;;;;;2.10;1.22;;;;;;;29.71;38.25;99624.16;1624117;85;21039;-71
2023/03/03 12:22:35;;;;;;;1.82;1.10;;;;;;;32.12;37.61;99626.28;1623683;85;21149;-76
2023/03/03 12:25:18;;;;;;;3.58;1.20;;;;;;;33.00;37.26;99613.93;1619064;85;21105;-76
2023/03/03 12:28:24;;;;;;;2.00;1.20;;;;;;;34.12;36.95;99616.51;1668539;83;21449;-75
2023/03/03 12:31:08;;;;;;;1.70;1.00;;;;;;;34.31;35.13;99609.45;1670053;83;20930;-67
2023/03/03 12:34:22;;;;;;;5.10;1.20;;;;;;;34.22;34.65;99603.22;1670580;84;21501;-75
2023/03/03 12:37:27;;;;;;;3.07;1.20;;;;;;;32.88;33.58;99591.63;1773143;79;20955;-75
2023/03/03 12:40:08;;;;;;;4.78;1.07;;;;;;;30.46;31.96;99597.63;1783813;79;21654;-72
2023/03/03 12:43:04;;;;;;;2.17;1.40;;;;;;;27.05;31.24;99594.36;1783099;79;21008;-74
2023/03/03 12:45:42;;;;;;;2.80;1.02;;;;;;;24.61;30.63;99600.02;1780107;79;21019;-70
2023/03/03 12:48:20;;;;;;;5.37;1.50;;;;;;;23.93;30.49;99594.86;1764586;79;21137;-66
2023/03/03 12:51:23;;;;;;;4.42;1.50;;;;;;;25.22;30.25;99597.84;1768839;79;20990;-68
2023/03/03 12:54:14;;;;;;;3.75;1.30;;;;;;;26.14;30.03;99592.03;1773059;79;21073;-70
2023/03/03 12:57:14;;;;;;;2.80;1.12;;;;;;;25.65;29.62;99593.90;1776748;79;20905;-67
2023/03/03 12:59:58;;;;;;;4.05;1.50;;;;;;;23.66;28.91;99583.38;1766731;79;21071;-72
2023/03/03 13:02:39;;;;;;;3.30;2.22;;;;;;;21.17;28.82;99587.07;1770223;79;20947;-70
2023/03/03 13:05:26;;;;;;;2.52;1.47;;;;;;;19.45;28.82;99594.02;1748086;79;20962;-73
2023/03/03 13:08:22;;;;;;;3.47;1.27;;;;;;;18.06;28.75;99591.93;1766280;79;21089;-68
2023/03/03 13:11:06;;;;;;;2.40;1.00;;;;;;;16.95;28.55;99590.91;1772782;79;21001;-69
2023/03/03 13:13:59;;;;;;;2.83;1.27;;;;;;;15.79;28.50;99586.59;1779583;79;21075;-72
2023/03/03 13:16:46;;;;;;;2.02;1.20;;;;;;;14.83;28.91;99594.08;1768317;79;21058;-72
2023/03/03 13:19:25;;;;;;;5.28;1.57;;;;;;;14.00;28.95;99587.64;1772940;79;21124;-72
2023/03/03 13:22:01;;;;;;;3.35;1.40;;;;;;;13.42;29.30;99576.84;1776747;77;21105;-72
2023/03/03 13:24:54;;;;;;;4.27;1.47;;;;;;;13.02;29.78;99592.77;1780847;79;21054;-72